Time;durP1;ratioP1;P1;durP2;ratioP2;P2;SDS_P1;SDS_P2;PMS_P1;PMS_P2;Temp;Humidity;BMP_temperature;BMP_pressure;BME280_temperature;BME280_humidity;BME280_pressure;Samples;Min_cycle;Max_cycle;Signal;HPM_P1;HPM_P2
2022/11/08 00:01:44;;;;;;;13;20.8;;;;;;;5.5;85.2;99080;;;;
2022/11/08 00:21:44;;;;;;;10;16.7;;;;;;;5.3;85.4;99080;;;;
2022/11/08 00:32:44;;;;;;;10;16.7;;;;;;;5.1;85.7;99080;;;;
2022/11/08 00:42:44;;;;;;;10;16.7;;;;;;;5.1;86.5;99070;;;;
2022/11/08 00:53:44;;;;;;;9.2;17.2;;;;;;;5;87;99070;;;;
2022/11/08 01:03:44;;;;;;;9.2;17.2;;;;;;;5;86.9;99070;;;;
2022/11/08 01:13:44;;;;;;;9.2;17.2;;;;;;;4.9;86.9;99070;;;;
2022/11/08 01:23:45;;;;;;;7.8;14.1;;;;;;;4.8;86.9;99070;;;;
2022/11/08 01:34:44;;;;;;;7.8;14.1;;;;;;;4.7;86.8;99070;;;;
2022/11/08 01:44:44;;;;;;;7.8;14.1;;;;;;;4.5;86.8;99070;;;;
2022/11/08 01:55:44;;;;;;;6.8;10.3;;;;;;;4.4;86.7;99070;;;;
2022/11/08 02:06:44;;;;;;;6.8;10.3;;;;;;;4.2;86.6;99070;;;;
2022/11/08 02:16:44;;;;;;;6.8;10.3;;;;;;;4.1;87.1;99060;;;;
2022/11/08 02:27:44;;;;;;;6.4;12.1;;;;;;;4.1;87.5;99050;;;;
2022/11/08 02:38:44;;;;;;;6.4;12.1;;;;;;;4.1;87.8;99050;;;;
2022/11/08 02:48:44;;;;;;;6.4;12.1;;;;;;;4.1;88.1;99050;;;;
2022/11/08 02:59:44;;;;;;;6.2;12.5;;;;;;;4.1;88.3;99060;;;;
2022/11/08 03:09:44;;;;;;;6.2;12.5;;;;;;;4.1;88.4;99060;;;;
2022/11/08 03:19:44;;;;;;;4.7;9;;;;;;;4;88.4;99060;;;;
2022/11/08 03:30:44;;;;;;;4.7;9;;;;;;;4;88.5;99060;;;;
2022/11/08 03:41:44;;;;;;;4.7;9;;;;;;;4;89.3;99060;;;;
2022/11/08 03:51:44;;;;;;;5.2;10.3;;;;;;;4.1;90.1;99060;;;;
2022/11/08 04:02:44;;;;;;;5.2;10.3;;;;;;;4.2;91.1;99060;;;;
2022/11/08 04:23:44;;;;;;;5.4;9.6;;;;;;;4.1;90.8;99070;;;;
2022/11/08 04:34:44;;;;;;;5.4;9.6;;;;;;;4;90.3;99060;;;;
2022/11/08 04:45:44;;;;;;;5.4;9.6;;;;;;;3.9;90;99050;;;;
2022/11/08 04:55:44;;;;;;;5;7.9;;;;;;;3.9;89.8;99050;;;;
2022/11/08 05:05:44;;;;;;;5;7.9;;;;;;;3.8;89.6;99040;;;;
2022/11/08 05:16:44;;;;;;;5;7.9;;;;;;;3.7;89.4;99040;;;;
2022/11/08 05:26:44;;;;;;;5;8.3;;;;;;;3.6;89.2;99040;;;;
2022/11/08 05:36:44;;;;;;;5;8.3;;;;;;;3.6;89.3;99050;;;;
2022/11/08 05:46:44;;;;;;;5;8.3;;;;;;;3.6;89.2;99060;;;;
2022/11/08 05:57:44;;;;;;;4.3;9.3;;;;;;;3.5;88.9;99060;;;;
2022/11/08 06:07:44;;;;;;;4.3;9.3;;;;;;;3.5;89;99070;;;;
2022/11/08 06:17:44;;;;;;;4.3;9.3;;;;;;;3.5;89.1;99070;;;;
2022/11/08 06:27:44;;;;;;;6.5;10.9;;;;;;;3.7;89.3;99080;;;;
2022/11/08 06:35:52;;;;;;;6.5;10.9;;;;;;;3.8;89.3;99080;;;;
2022/11/08 06:45:52;;;;;;;6.5;10.9;;;;;;;3.9;89.5;99080;;;;
2022/11/08 06:56:54;;;;;;;9.9;16.1;;;;;;;4.2;89.7;99090;;;;
2022/11/08 07:06:52;;;;;;;9.9;16.1;;;;;;;4.5;89.8;99100;;;;
2022/11/08 07:17:52;;;;;;;9.9;16.1;;;;;;;5;90.1;99100;;;;
2022/11/08 07:27:53;;;;;;;10.5;15;;;;;;;5.5;90.3;99100;;;;
2022/11/08 07:37:52;;;;;;;10.5;15;;;;;;;6;90.5;99100;;;;
2022/11/08 07:47:52;;;;;;;10.5;15;;;;;;;6.6;90.7;99100;;;;
2022/11/08 07:58:52;;;;;;;10;14.6;;;;;;;7.2;90.5;99090;;;;
2022/11/08 08:09:52;;;;;;;10;14.6;;;;;;;7.8;90.1;99090;;;;
2022/11/08 08:20:52;;;;;;;11.3;14.6;;;;;;;8.6;89.5;99080;;;;
2022/11/08 08:31:52;;;;;;;11.3;14.6;;;;;;;9.2;88.7;99080;;;;
2022/11/08 08:41:52;;;;;;;11.3;14.6;;;;;;;9.7;87.5;99070;;;;
2022/11/08 08:52:52;;;;;;;10.6;15.9;;;;;;;10.5;86.4;99070;;;;
2022/11/08 09:03:52;;;;;;;10.6;15.9;;;;;;;11.2;84.7;99060;;;;
2022/11/08 09:14:52;;;;;;;10.6;15.9;;;;;;;11.8;82.8;99060;;;;
2022/11/08 09:24:52;;;;;;;9.2;14;;;;;;;12.4;80.7;99060;;;;
2022/11/08 09:35:52;;;;;;;9.2;14;;;;;;;13;78;99060;;;;
2022/11/08 09:45:54;;;;;;;9.2;14;;;;;;;13.5;75.3;99060;;;;
2022/11/08 09:55:52;;;;;;;6.2;8.8;;;;;;;14;72.8;99050;;;;
2022/11/08 10:05:52;;;;;;;6.2;8.8;;;;;;;14.4;69.9;99050;;;;
2022/11/08 10:15:52;;;;;;;6.2;8.8;;;;;;;14.7;69.3;99040;;;;
2022/11/08 10:25:52;;;;;;;3.2;8.1;;;;;;;15.1;69;99030;;;;
2022/11/08 10:35:52;;;;;;;3.2;8.1;;;;;;;15.5;67.5;99010;;;;
2022/11/08 10:45:52;;;;;;;3.2;8.1;;;;;;;15.7;66.2;99010;;;;
2022/11/08 10:56:52;;;;;;;2.8;5.7;;;;;;;16;65.5;98990;;;;
2022/11/08 11:06:52;;;;;;;2.8;5.7;;;;;;;16.2;63.8;98980;;;;
2022/11/08 11:17:52;;;;;;;2.8;5.7;;;;;;;16.6;65;98960;;;;
2022/11/08 11:27:53;;;;;;;3.9;6.9;;;;;;;16.8;62.9;98950;;;;
2022/11/08 11:38:52;;;;;;;3.9;6.9;;;;;;;17;62.1;98950;;;;
2022/11/08 11:48:52;;;;;;;3.4;7.2;;;;;;;17.3;59.5;98940;;;;
2022/11/08 11:59:52;;;;;;;3.4;7.2;;;;;;;17.4;58.3;98930;;;;
2022/11/08 12:10:52;;;;;;;3.4;7.2;;;;;;;17.4;58.4;98930;;;;
2022/11/08 12:21:52;;;;;;;2.6;6.1;;;;;;;17.4;58.2;98910;;;;
2022/11/08 12:32:52;;;;;;;2.6;6.1;;;;;;;17.4;58.8;98910;;;;
2022/11/08 12:43:52;;;;;;;2.6;6.1;;;;;;;17.4;57.3;98900;;;;
2022/11/08 12:54:52;;;;;;;3.1;6.6;;;;;;;17.3;56.7;98890;;;;
2022/11/08 13:05:52;;;;;;;3.1;6.6;;;;;;;17.2;56.9;98890;;;;
2022/11/08 13:15:53;;;;;;;3.1;6.6;;;;;;;17.1;57.6;98880;;;;
2022/11/08 13:26:52;;;;;;;2.6;5;;;;;;;17;57.9;98880;;;;
2022/11/08 13:36:52;;;;;;;2.6;5;;;;;;;16.9;57.6;98880;;;;
2022/11/08 13:47:52;;;;;;;2.6;5;;;;;;;16.8;58;98880;;;;
2022/11/08 13:58:52;;;;;;;3.3;5.9;;;;;;;16.5;58.6;98870;;;;
2022/11/08 14:08:52;;;;;;;3.3;5.9;;;;;;;16.1;59.4;98880;;;;
2022/11/08 14:18:52;;;;;;;2.9;5.8;;;;;;;15.8;59.5;98870;;;;
2022/11/08 14:29:52;;;;;;;2.9;5.8;;;;;;;15.5;60.1;98870;;;;
2022/11/08 14:39:52;;;;;;;2.9;5.8;;;;;;;14.9;61.4;98870;;;;
2022/11/08 14:50:52;;;;;;;3.4;6.8;;;;;;;14.2;64.2;98860;;;;
2022/11/08 15:01:52;;;;;;;3.4;6.8;;;;;;;13.6;67;98850;;;;
2022/11/08 15:12:52;;;;;;;3.4;6.8;;;;;;;13.1;67.6;98850;;;;
2022/11/08 15:22:53;;;;;;;3.3;6.1;;;;;;;12.6;68.9;98850;;;;
2022/11/08 15:33:52;;;;;;;3.3;6.1;;;;;;;12.2;70.5;98850;;;;
2022/11/08 15:44:52;;;;;;;3.3;6.1;;;;;;;11.8;71.7;98850;;;;
2022/11/08 15:55:52;;;;;;;4.4;12.5;;;;;;;11.5;72.8;98850;;;;
2022/11/08 16:06:52;;;;;;;4.4;12.5;;;;;;;11.2;73.7;98850;;;;
2022/11/08 16:17:52;;;;;;;4.4;12.5;;;;;;;10.9;74.5;98850;;;;
2022/11/08 16:27:52;;;;;;;12.7;22.9;;;;;;;10.5;74.7;98850;;;;
2022/11/08 16:37:53;;;;;;;12.7;22.9;;;;;;;10.1;75.2;98860;;;;
2022/11/08 16:48:52;;;;;;;19.4;27.9;;;;;;;9.7;76.6;98860;;;;
2022/11/08 16:58:52;;;;;;;19.4;27.9;;;;;;;9.4;77.6;98860;;;;
2022/11/08 17:08:52;;;;;;;19.4;27.9;;;;;;;9.3;78.7;98860;;;;
2022/11/08 17:18:52;;;;;;;11.7;18.4;;;;;;;9.1;79.3;98860;;;;
2022/11/08 17:28:52;;;;;;;11.7;18.4;;;;;;;9;80.9;98860;;;;
2022/11/08 17:39:54;;;;;;;11.7;18.4;;;;;;;8.9;81.3;98870;;;;
2022/11/08 17:50:52;;;;;;;39.4;66.3;;;;;;;8.6;80.5;98870;;;;
2022/11/08 18:00:53;;;;;;;39.4;66.3;;;;;;;8.3;80.7;98870;;;;
2022/11/08 18:11:53;;;;;;;39.4;66.3;;;;;;;8.1;81.3;98880;;;;
2022/11/08 18:21:52;;;;;;;27.7;46;;;;;;;7.8;81.6;98880;;;;
2022/11/08 18:31:52;;;;;;;27.7;46;;;;;;;7.6;81.9;98870;;;;
2022/11/08 18:41:52;;;;;;;27.7;46;;;;;;;7.4;82.3;98880;;;;
2022/11/08 18:52:52;;;;;;;20.5;30.9;;;;;;;7.3;84.2;98880;;;;
2022/11/08 19:03:52;;;;;;;20.5;30.9;;;;;;;7.1;84.5;98880;;;;
2022/11/08 19:14:52;;;;;;;20.5;30.9;;;;;;;7;84.7;98890;;;;
2022/11/08 19:24:52;;;;;;;16.1;26.1;;;;;;;6.9;85.9;98890;;;;
2022/11/08 19:35:52;;;;;;;16.1;26.1;;;;;;;6.9;86.7;98900;;;;
2022/11/08 19:45:53;;;;;;;16.1;26.1;;;;;;;6.9;86.8;98910;;;;
2022/11/08 19:56:53;;;;;;;14.1;22.9;;;;;;;6.8;86.9;98910;;;;
2022/11/08 20:06:52;;;;;;;14.1;22.9;;;;;;;6.8;86.6;98920;;;;
2022/11/08 20:17:52;;;;;;;14.1;22.9;;;;;;;6.7;86.4;98920;;;;
2022/11/08 20:27:52;;;;;;;16.4;27.9;;;;;;;6.5;85.5;98920;;;;
2022/11/08 20:37:53;;;;;;;16.4;27.9;;;;;;;6.3;85;98910;;;;
2022/11/08 20:47:52;;;;;;;16.4;27.9;;;;;;;6.1;85.3;98910;;;;
2022/11/08 20:58:53;;;;;;;18.3;29.5;;;;;;;6;85.4;98910;;;;
2022/11/08 21:08:53;;;;;;;18.3;29.5;;;;;;;5.8;85.3;98910;;;;
2022/11/08 21:19:53;;;;;;;12.3;20.6;;;;;;;5.6;85.4;98910;;;;
2022/11/08 21:30:53;;;;;;;12.3;20.6;;;;;;;5.4;85.5;98910;;;;
2022/11/08 21:41:53;;;;;;;12.3;20.6;;;;;;;5.2;85.5;98920;;;;
2022/11/08 21:52:53;;;;;;;22.7;41.3;;;;;;;5;85.7;98920;;;;
2022/11/08 22:02:53;;;;;;;22.7;41.3;;;;;;;4.9;86.2;98920;;;;
2022/11/08 22:13:53;;;;;;;22.7;41.3;;;;;;;4.8;87.4;98910;;;;
2022/11/08 22:24:54;;;;;;;15.9;29.6;;;;;;;4.8;88.1;98920;;;;
2022/11/08 22:35:53;;;;;;;15.9;29.6;;;;;;;4.7;88.1;98910;;;;
2022/11/08 22:45:53;;;;;;;15.9;29.6;;;;;;;4.7;88.3;98910;;;;
2022/11/08 22:56:53;;;;;;;12;22;;;;;;;4.5;87.7;98920;;;;
2022/11/08 23:06:53;;;;;;;12;22;;;;;;;4.2;87.3;98920;;;;
2022/11/08 23:16:53;;;;;;;12;22;;;;;;;4;87.6;98910;;;;
2022/11/08 23:37:53;;;;;;;11.1;19.3;;;;;;;3.8;87.8;98920;;;;
2022/11/08 23:47:53;;;;;;;12.6;21.7;;;;;;;3.7;87.7;98920;;;;
2022/11/08 23:58:52;;;;;;;12.6;21.7;;;;;;;3.5;87.9;98930;;;;
